sensor_id;sensor_type;location;lat;lon;timestamp;P1;durP1;ratioP1;P2;durP2;ratioP2
5521;SDS011;2783;48.730;8.006;2023-08-17T00:01:53;0.10;;;0.10;;
5521;SDS011;2783;48.730;8.006;2023-08-17T00:04:19;0.10;;;0.10;;
5521;SDS011;2783;48.730;8.006;2023-08-17T00:06:44;0.10;;;0.10;;
5521;SDS011;2783;48.730;8.006;2023-08-17T00:09:11;0.10;;;0.10;;
5521;SDS011;2783;48.730;8.006;2023-08-17T00:11:37;0.10;;;0.10;;
5521;SDS011;2783;48.730;8.006;2023-08-17T00:14:03;0.10;;;0.10;;
5521;SDS011;2783;48.730;8.006;2023-08-17T00:16:29;0.10;;;0.10;;
5521;SDS011;2783;48.730;8.006;2023-08-17T00:18:54;0.10;;;0.10;;
5521;SDS011;2783;48.730;8.006;2023-08-17T00:21:20;0.10;;;0.10;;
5521;SDS011;2783;48.730;8.006;2023-08-17T00:23:45;0.10;;;0.10;;
5521;SDS011;2783;48.730;8.006;2023-08-17T00:26:11;0.10;;;0.10;;
5521;SDS011;2783;48.730;8.006;2023-08-17T00:28:36;0.15;;;0.15;;
5521;SDS011;2783;48.730;8.006;2023-08-17T00:31:02;0.17;;;0.17;;
5521;SDS011;2783;48.730;8.006;2023-08-17T00:33:27;0.10;;;0.10;;
5521;SDS011;2783;48.730;8.006;2023-08-17T00:35:53;0.20;;;0.20;;
5521;SDS011;2783;48.730;8.006;2023-08-17T00:38:19;0.10;;;0.10;;
5521;SDS011;2783;48.730;8.006;2023-08-17T00:40:44;0.17;;;0.17;;
5521;SDS011;2783;48.730;8.006;2023-08-17T00:43:09;0.20;;;0.20;;
5521;SDS011;2783;48.730;8.006;2023-08-17T00:45:35;0.20;;;0.20;;
5521;SDS011;2783;48.730;8.006;2023-08-17T00:48:01;0.10;;;0.10;;
5521;SDS011;2783;48.730;8.006;2023-08-17T00:50:28;0.20;;;0.20;;
5521;SDS011;2783;48.730;8.006;2023-08-17T00:52:54;0.10;;;0.10;;
5521;SDS011;2783;48.730;8.006;2023-08-17T00:55:20;0.10;;;0.10;;
5521;SDS011;2783;48.730;8.006;2023-08-17T00:57:46;0.17;;;0.17;;
5521;SDS011;2783;48.730;8.006;2023-08-17T01:03:03;0.20;;;0.20;;
5521;SDS011;2783;48.730;8.006;2023-08-17T01:05:29;0.20;;;0.20;;
5521;SDS011;2783;48.730;8.006;2023-08-17T01:07:56;0.10;;;0.10;;
5521;SDS011;2783;48.730;8.006;2023-08-17T01:10:21;0.20;;;0.20;;
5521;SDS011;2783;48.730;8.006;2023-08-17T01:13:00;0.17;;;0.17;;
5521;SDS011;2783;48.730;8.006;2023-08-17T01:15:27;0.20;;;0.20;;
5521;SDS011;2783;48.730;8.006;2023-08-17T01:18:49;0.10;;;0.10;;
5521;SDS011;2783;48.730;8.006;2023-08-17T01:20:56;0.20;;;0.20;;
5521;SDS011;2783;48.730;8.006;2023-08-17T01:23:22;0.10;;;0.10;;
5521;SDS011;2783;48.730;8.006;2023-08-17T01:25:47;0.10;;;0.10;;
5521;SDS011;2783;48.730;8.006;2023-08-17T01:28:13;0.10;;;0.10;;
5521;SDS011;2783;48.730;8.006;2023-08-17T01:33:33;0.13;;;0.13;;
5521;SDS011;2783;48.730;8.006;2023-08-17T01:38:45;0.20;;;0.20;;
5521;SDS011;2783;48.730;8.006;2023-08-17T01:41:12;0.20;;;0.20;;
5521;SDS011;2783;48.730;8.006;2023-08-17T01:43:43;0.20;;;0.20;;
5521;SDS011;2783;48.730;8.006;2023-08-17T01:46:14;0.20;;;0.20;;
5521;SDS011;2783;48.730;8.006;2023-08-17T01:48:43;0.20;;;0.20;;
5521;SDS011;2783;48.730;8.006;2023-08-17T01:51:27;0.20;;;0.20;;
5521;SDS011;2783;48.730;8.006;2023-08-17T01:56:18;0.20;;;0.20;;
5521;SDS011;2783;48.730;8.006;2023-08-17T01:58:44;0.20;;;0.20;;
5521;SDS011;2783;48.730;8.006;2023-08-17T02:01:09;0.10;;;0.10;;
5521;SDS011;2783;48.730;8.006;2023-08-17T02:03:35;0.10;;;0.10;;
5521;SDS011;2783;48.730;8.006;2023-08-17T02:06:00;0.10;;;0.10;;
5521;SDS011;2783;48.730;8.006;2023-08-17T02:08:26;0.20;;;0.20;;
5521;SDS011;2783;48.730;8.006;2023-08-17T02:10:52;0.20;;;0.20;;
5521;SDS011;2783;48.730;8.006;2023-08-17T02:13:18;0.20;;;0.20;;
5521;SDS011;2783;48.730;8.006;2023-08-17T02:15:46;0.20;;;0.20;;
5521;SDS011;2783;48.730;8.006;2023-08-17T02:18:11;0.13;;;0.13;;
5521;SDS011;2783;48.730;8.006;2023-08-17T02:20:37;0.20;;;0.20;;
5521;SDS011;2783;48.730;8.006;2023-08-17T02:23:02;0.20;;;0.20;;
5521;SDS011;2783;48.730;8.006;2023-08-17T02:25:28;0.10;;;0.10;;
5521;SDS011;2783;48.730;8.006;2023-08-17T02:28:00;0.10;;;0.10;;
5521;SDS011;2783;48.730;8.006;2023-08-17T02:30:26;0.20;;;0.20;;
5521;SDS011;2783;48.730;8.006;2023-08-17T02:32:51;0.20;;;0.20;;
5521;SDS011;2783;48.730;8.006;2023-08-17T02:35:17;0.20;;;0.20;;
5521;SDS011;2783;48.730;8.006;2023-08-17T02:37:42;0.20;;;0.20;;
5521;SDS011;2783;48.730;8.006;2023-08-17T02:40:08;0.20;;;0.20;;
5521;SDS011;2783;48.730;8.006;2023-08-17T02:42:33;0.17;;;0.17;;
5521;SDS011;2783;48.730;8.006;2023-08-17T02:44:59;0.20;;;0.20;;
5521;SDS011;2783;48.730;8.006;2023-08-17T02:47:24;0.20;;;0.20;;
5521;SDS011;2783;48.730;8.006;2023-08-17T02:49:50;0.20;;;0.20;;
5521;SDS011;2783;48.730;8.006;2023-08-17T02:52:15;0.20;;;0.20;;
5521;SDS011;2783;48.730;8.006;2023-08-17T02:54:41;0.20;;;0.20;;
5521;SDS011;2783;48.730;8.006;2023-08-17T02:57:06;0.20;;;0.20;;
5521;SDS011;2783;48.730;8.006;2023-08-17T02:59:31;0.20;;;0.20;;
5521;SDS011;2783;48.730;8.006;2023-08-17T03:01:57;0.20;;;0.20;;
5521;SDS011;2783;48.730;8.006;2023-08-17T03:04:22;0.20;;;0.20;;
5521;SDS011;2783;48.730;8.006;2023-08-17T03:06:48;0.20;;;0.20;;
5521;SDS011;2783;48.730;8.006;2023-08-17T03:09:13;0.20;;;0.20;;
5521;SDS011;2783;48.730;8.006;2023-08-17T03:11:38;0.20;;;0.20;;
5521;SDS011;2783;48.730;8.006;2023-08-17T03:14:04;0.20;;;0.20;;
5521;SDS011;2783;48.730;8.006;2023-08-17T03:16:29;0.20;;;0.20;;
5521;SDS011;2783;48.730;8.006;2023-08-17T03:18:55;0.20;;;0.20;;
5521;SDS011;2783;48.730;8.006;2023-08-17T03:21:21;0.10;;;0.10;;
5521;SDS011;2783;48.730;8.006;2023-08-17T03:23:47;0.20;;;0.20;;
5521;SDS011;2783;48.730;8.006;2023-08-17T03:26:13;0.20;;;0.20;;
5521;SDS011;2783;48.730;8.006;2023-08-17T03:28:39;0.20;;;0.20;;
5521;SDS011;2783;48.730;8.006;2023-08-17T03:31:04;0.20;;;0.20;;
5521;SDS011;2783;48.730;8.006;2023-08-17T03:33:32;0.20;;;0.20;;
5521;SDS011;2783;48.730;8.006;2023-08-17T03:35:57;0.20;;;0.20;;
5521;SDS011;2783;48.730;8.006;2023-08-17T03:38:23;0.17;;;0.17;;
5521;SDS011;2783;48.730;8.006;2023-08-17T03:40:48;0.20;;;0.20;;
5521;SDS011;2783;48.730;8.006;2023-08-17T03:43:13;0.10;;;0.10;;
5521;SDS011;2783;48.730;8.006;2023-08-17T03:45:40;0.13;;;0.13;;
5521;SDS011;2783;48.730;8.006;2023-08-17T03:48:06;0.20;;;0.20;;
5521;SDS011;2783;48.730;8.006;2023-08-17T03:50:32;0.20;;;0.20;;
5521;SDS011;2783;48.730;8.006;2023-08-17T03:52:58;0.20;;;0.20;;
5521;SDS011;2783;48.730;8.006;2023-08-17T03:55:23;0.20;;;0.20;;
5521;SDS011;2783;48.730;8.006;2023-08-17T03:57:49;0.20;;;0.20;;
5521;SDS011;2783;48.730;8.006;2023-08-17T04:00:14;0.20;;;0.20;;
5521;SDS011;2783;48.730;8.006;2023-08-17T04:02:40;0.20;;;0.20;;
5521;SDS011;2783;48.730;8.006;2023-08-17T04:05:05;0.20;;;0.20;;
5521;SDS011;2783;48.730;8.006;2023-08-17T04:07:31;0.20;;;0.20;;
5521;SDS011;2783;48.730;8.006;2023-08-17T04:09:56;0.20;;;0.20;;
5521;SDS011;2783;48.730;8.006;2023-08-17T04:12:22;0.20;;;0.20;;
5521;SDS011;2783;48.730;8.006;2023-08-17T04:14:48;0.20;;;0.20;;
5521;SDS011;2783;48.730;8.006;2023-08-17T04:17:14;0.20;;;0.20;;
5521;SDS011;2783;48.730;8.006;2023-08-17T04:19:39;0.20;;;0.20;;
5521;SDS011;2783;48.730;8.006;2023-08-17T04:22:04;0.20;;;0.20;;
5521;SDS011;2783;48.730;8.006;2023-08-17T04:24:30;0.20;;;0.20;;
5521;SDS011;2783;48.730;8.006;2023-08-17T04:26:55;0.20;;;0.20;;
5521;SDS011;2783;48.730;8.006;2023-08-17T04:29:21;0.15;;;0.15;;
5521;SDS011;2783;48.730;8.006;2023-08-17T04:31:46;0.20;;;0.20;;
5521;SDS011;2783;48.730;8.006;2023-08-17T04:34:11;0.20;;;0.20;;
5521;SDS011;2783;48.730;8.006;2023-08-17T04:36:37;0.20;;;0.20;;
5521;SDS011;2783;48.730;8.006;2023-08-17T04:39:02;0.20;;;0.20;;
5521;SDS011;2783;48.730;8.006;2023-08-17T04:41:29;0.20;;;0.20;;
5521;SDS011;2783;48.730;8.006;2023-08-17T04:43:55;0.20;;;0.20;;
5521;SDS011;2783;48.730;8.006;2023-08-17T04:46:21;0.20;;;0.20;;
5521;SDS011;2783;48.730;8.006;2023-08-17T04:48:46;0.20;;;0.20;;
5521;SDS011;2783;48.730;8.006;2023-08-17T04:51:12;0.20;;;0.20;;
5521;SDS011;2783;48.730;8.006;2023-08-17T04:53:37;0.20;;;0.20;;
5521;SDS011;2783;48.730;8.006;2023-08-17T04:56:02;0.20;;;0.20;;
5521;SDS011;2783;48.730;8.006;2023-08-17T04:58:29;0.20;;;0.20;;
5521;SDS011;2783;48.730;8.006;2023-08-17T05:00:54;0.20;;;0.20;;
5521;SDS011;2783;48.730;8.006;2023-08-17T05:03:20;0.20;;;0.20;;
5521;SDS011;2783;48.730;8.006;2023-08-17T05:05:45;0.20;;;0.20;;
5521;SDS011;2783;48.730;8.006;2023-08-17T05:08:10;0.20;;;0.20;;
5521;SDS011;2783;48.730;8.006;2023-08-17T05:10:36;0.20;;;0.20;;
5521;SDS011;2783;48.730;8.006;2023-08-17T05:13:01;0.20;;;0.20;;
5521;SDS011;2783;48.730;8.006;2023-08-17T05:15:27;0.20;;;0.20;;
5521;SDS011;2783;48.730;8.006;2023-08-17T05:17:52;0.20;;;0.20;;
5521;SDS011;2783;48.730;8.006;2023-08-17T05:20:18;0.20;;;0.20;;
5521;SDS011;2783;48.730;8.006;2023-08-17T05:22:45;0.20;;;0.20;;
5521;SDS011;2783;48.730;8.006;2023-08-17T05:25:11;0.20;;;0.20;;
5521;SDS011;2783;48.730;8.006;2023-08-17T05:27:37;0.20;;;0.20;;
5521;SDS011;2783;48.730;8.006;2023-08-17T05:30:02;0.20;;;0.20;;
5521;SDS011;2783;48.730;8.006;2023-08-17T05:32:28;0.20;;;0.20;;
5521;SDS011;2783;48.730;8.006;2023-08-17T05:34:53;0.20;;;0.20;;
5521;SDS011;2783;48.730;8.006;2023-08-17T05:37:19;0.20;;;0.20;;
5521;SDS011;2783;48.730;8.006;2023-08-17T05:39:44;0.20;;;0.20;;
5521;SDS011;2783;48.730;8.006;2023-08-17T05:42:10;0.20;;;0.20;;
5521;SDS011;2783;48.730;8.006;2023-08-17T05:44:35;0.20;;;0.20;;
5521;SDS011;2783;48.730;8.006;2023-08-17T05:47:01;0.20;;;0.20;;
5521;SDS011;2783;48.730;8.006;2023-08-17T05:49:26;0.20;;;0.20;;
5521;SDS011;2783;48.730;8.006;2023-08-17T05:51:52;0.20;;;0.20;;
5521;SDS011;2783;48.730;8.006;2023-08-17T05:54:17;0.20;;;0.20;;
5521;SDS011;2783;48.730;8.006;2023-08-17T05:56:42;0.20;;;0.20;;
5521;SDS011;2783;48.730;8.006;2023-08-17T05:59:11;0.20;;;0.20;;
5521;SDS011;2783;48.730;8.006;2023-08-17T06:01:37;0.20;;;0.20;;
5521;SDS011;2783;48.730;8.006;2023-08-17T06:04:03;0.20;;;0.20;;
5521;SDS011;2783;48.730;8.006;2023-08-17T06:06:29;0.20;;;0.20;;
5521;SDS011;2783;48.730;8.006;2023-08-17T06:08:55;0.20;;;0.20;;
5521;SDS011;2783;48.730;8.006;2023-08-17T06:11:20;0.20;;;0.20;;
5521;SDS011;2783;48.730;8.006;2023-08-17T06:13:46;0.20;;;0.20;;
5521;SDS011;2783;48.730;8.006;2023-08-17T06:16:11;0.20;;;0.20;;
5521;SDS011;2783;48.730;8.006;2023-08-17T06:18:37;0.20;;;0.20;;
5521;SDS011;2783;48.730;8.006;2023-08-17T06:21:03;0.20;;;0.20;;
5521;SDS011;2783;48.730;8.006;2023-08-17T06:23:28;0.20;;;0.20;;
5521;SDS011;2783;48.730;8.006;2023-08-17T06:25:57;0.20;;;0.20;;
5521;SDS011;2783;48.730;8.006;2023-08-17T06:28:26;0.20;;;0.20;;
5521;SDS011;2783;48.730;8.006;2023-08-17T06:30:52;0.20;;;0.20;;
5521;SDS011;2783;48.730;8.006;2023-08-17T06:33:18;0.20;;;0.20;;
5521;SDS011;2783;48.730;8.006;2023-08-17T06:35:44;0.20;;;0.20;;
5521;SDS011;2783;48.730;8.006;2023-08-17T06:38:10;0.20;;;0.20;;
5521;SDS011;2783;48.730;8.006;2023-08-17T06:40:35;0.20;;;0.20;;
5521;SDS011;2783;48.730;8.006;2023-08-17T06:43:01;0.20;;;0.20;;
5521;SDS011;2783;48.730;8.006;2023-08-17T06:45:26;0.20;;;0.20;;
5521;SDS011;2783;48.730;8.006;2023-08-17T06:47:52;0.20;;;0.20;;
5521;SDS011;2783;48.730;8.006;2023-08-17T06:50:17;0.20;;;0.20;;
5521;SDS011;2783;48.730;8.006;2023-08-17T06:52:43;0.20;;;0.20;;
5521;SDS011;2783;48.730;8.006;2023-08-17T06:55:08;0.20;;;0.20;;
5521;SDS011;2783;48.730;8.006;2023-08-17T06:57:35;0.20;;;0.20;;
5521;SDS011;2783;48.730;8.006;2023-08-17T07:00:01;0.20;;;0.20;;
5521;SDS011;2783;48.730;8.006;2023-08-17T07:02:30;0.20;;;0.20;;
5521;SDS011;2783;48.730;8.006;2023-08-17T07:04:55;0.20;;;0.20;;
5521;SDS011;2783;48.730;8.006;2023-08-17T07:07:21;0.20;;;0.20;;
5521;SDS011;2783;48.730;8.006;2023-08-17T07:09:46;0.20;;;0.20;;
5521;SDS011;2783;48.730;8.006;2023-08-17T07:12:11;0.20;;;0.20;;
5521;SDS011;2783;48.730;8.006;2023-08-17T07:14:37;0.20;;;0.20;;
5521;SDS011;2783;48.730;8.006;2023-08-17T07:17:02;0.20;;;0.20;;
5521;SDS011;2783;48.730;8.006;2023-08-17T07:19:28;0.20;;;0.20;;
5521;SDS011;2783;48.730;8.006;2023-08-17T07:21:53;0.20;;;0.20;;
5521;SDS011;2783;48.730;8.006;2023-08-17T07:24:18;0.20;;;0.20;;
5521;SDS011;2783;48.730;8.006;2023-08-17T07:26:44;0.20;;;0.20;;
5521;SDS011;2783;48.730;8.006;2023-08-17T07:29:09;0.20;;;0.20;;
5521;SDS011;2783;48.730;8.006;2023-08-17T07:31:36;0.20;;;0.20;;
5521;SDS011;2783;48.730;8.006;2023-08-17T07:34:03;0.20;;;0.20;;
5521;SDS011;2783;48.730;8.006;2023-08-17T07:36:29;0.20;;;0.20;;
5521;SDS011;2783;48.730;8.006;2023-08-17T07:38:54;0.20;;;0.20;;
5521;SDS011;2783;48.730;8.006;2023-08-17T07:41:20;0.20;;;0.20;;
5521;SDS011;2783;48.730;8.006;2023-08-17T07:43:45;0.20;;;0.20;;
5521;SDS011;2783;48.730;8.006;2023-08-17T07:46:11;0.20;;;0.20;;
5521;SDS011;2783;48.730;8.006;2023-08-17T07:48:37;0.20;;;0.20;;
5521;SDS011;2783;48.730;8.006;2023-08-17T07:51:02;0.20;;;0.20;;
5521;SDS011;2783;48.730;8.006;2023-08-17T07:53:27;0.20;;;0.20;;
5521;SDS011;2783;48.730;8.006;2023-08-17T07:55:53;0.20;;;0.20;;
5521;SDS011;2783;48.730;8.006;2023-08-17T07:58:19;0.20;;;0.20;;
5521;SDS011;2783;48.730;8.006;2023-08-17T08:00:44;0.20;;;0.20;;
5521;SDS011;2783;48.730;8.006;2023-08-17T08:03:09;0.20;;;0.20;;
5521;SDS011;2783;48.730;8.006;2023-08-17T08:05:35;0.20;;;0.20;;
5521;SDS011;2783;48.730;8.006;2023-08-17T08:08:00;0.20;;;0.20;;
5521;SDS011;2783;48.730;8.006;2023-08-17T08:10:26;0.20;;;0.20;;
5521;SDS011;2783;48.730;8.006;2023-08-17T08:12:53;0.20;;;0.20;;
5521;SDS011;2783;48.730;8.006;2023-08-17T08:15:18;0.20;;;0.20;;
5521;SDS011;2783;48.730;8.006;2023-08-17T08:17:44;0.20;;;0.20;;
5521;SDS011;2783;48.730;8.006;2023-08-17T08:20:09;0.20;;;0.20;;
5521;SDS011;2783;48.730;8.006;2023-08-17T08:22:36;0.20;;;0.20;;
5521;SDS011;2783;48.730;8.006;2023-08-17T08:25:01;0.20;;;0.20;;
5521;SDS011;2783;48.730;8.006;2023-08-17T08:27:27;0.20;;;0.20;;
5521;SDS011;2783;48.730;8.006;2023-08-17T08:29:52;0.20;;;0.20;;
5521;SDS011;2783;48.730;8.006;2023-08-17T08:32:18;0.20;;;0.20;;
5521;SDS011;2783;48.730;8.006;2023-08-17T08:34:43;0.13;;;0.13;;
5521;SDS011;2783;48.730;8.006;2023-08-17T08:37:08;0.10;;;0.10;;
5521;SDS011;2783;48.730;8.006;2023-08-17T08:39:47;0.20;;;0.20;;
5521;SDS011;2783;48.730;8.006;2023-08-17T08:42:17;0.20;;;0.20;;
5521;SDS011;2783;48.730;8.006;2023-08-17T08:44:44;0.20;;;0.20;;
5521;SDS011;2783;48.730;8.006;2023-08-17T08:47:10;0.20;;;0.20;;
5521;SDS011;2783;48.730;8.006;2023-08-17T08:49:38;0.20;;;0.20;;
5521;SDS011;2783;48.730;8.006;2023-08-17T08:52:06;0.20;;;0.20;;
5521;SDS011;2783;48.730;8.006;2023-08-17T08:54:32;0.20;;;0.20;;
5521;SDS011;2783;48.730;8.006;2023-08-17T08:57:03;0.20;;;0.20;;
5521;SDS011;2783;48.730;8.006;2023-08-17T08:59:31;0.20;;;0.20;;
5521;SDS011;2783;48.730;8.006;2023-08-17T09:01:59;0.15;;;0.15;;
5521;SDS011;2783;48.730;8.006;2023-08-17T09:04:25;0.20;;;0.20;;
5521;SDS011;2783;48.730;8.006;2023-08-17T09:06:51;0.20;;;0.20;;
5521;SDS011;2783;48.730;8.006;2023-08-17T09:09:18;0.20;;;0.20;;
5521;SDS011;2783;48.730;8.006;2023-08-17T09:11:43;0.20;;;0.20;;
5521;SDS011;2783;48.730;8.006;2023-08-17T09:14:09;0.20;;;0.20;;
5521;SDS011;2783;48.730;8.006;2023-08-17T09:16:34;0.20;;;0.20;;
5521;SDS011;2783;48.730;8.006;2023-08-17T09:19:00;0.20;;;0.20;;
5521;SDS011;2783;48.730;8.006;2023-08-17T09:21:26;0.20;;;0.20;;
5521;SDS011;2783;48.730;8.006;2023-08-17T09:23:57;0.20;;;0.20;;
5521;SDS011;2783;48.730;8.006;2023-08-17T09:26:23;0.10;;;0.10;;
5521;SDS011;2783;48.730;8.006;2023-08-17T09:28:49;0.20;;;0.20;;
5521;SDS011;2783;48.730;8.006;2023-08-17T09:31:15;0.20;;;0.20;;
5521;SDS011;2783;48.730;8.006;2023-08-17T09:33:40;0.20;;;0.20;;
5521;SDS011;2783;48.730;8.006;2023-08-17T09:36:06;0.17;;;0.17;;
5521;SDS011;2783;48.730;8.006;2023-08-17T09:38:31;0.20;;;0.20;;
5521;SDS011;2783;48.730;8.006;2023-08-17T09:40:57;0.20;;;0.20;;
5521;SDS011;2783;48.730;8.006;2023-08-17T09:43:23;0.20;;;0.20;;
5521;SDS011;2783;48.730;8.006;2023-08-17T09:45:52;0.10;;;0.10;;
5521;SDS011;2783;48.730;8.006;2023-08-17T09:48:19;0.13;;;0.13;;
5521;SDS011;2783;48.730;8.006;2023-08-17T09:50:45;0.10;;;0.10;;
5521;SDS011;2783;48.730;8.006;2023-08-17T09:53:18;0.10;;;0.10;;
5521;SDS011;2783;48.730;8.006;2023-08-17T09:55:44;0.10;;;0.10;;
5521;SDS011;2783;48.730;8.006;2023-08-17T09:58:10;0.10;;;0.10;;
5521;SDS011;2783;48.730;8.006;2023-08-17T10:00:42;0.10;;;0.10;;
5521;SDS011;2783;48.730;8.006;2023-08-17T10:03:10;0.15;;;0.15;;
5521;SDS011;2783;48.730;8.006;2023-08-17T10:05:38;0.10;;;0.10;;
5521;SDS011;2783;48.730;8.006;2023-08-17T10:08:05;0.10;;;0.10;;
5521;SDS011;2783;48.730;8.006;2023-08-17T10:10:34;0.20;;;0.20;;
5521;SDS011;2783;48.730;8.006;2023-08-17T10:13:10;0.10;;;0.10;;
5521;SDS011;2783;48.730;8.006;2023-08-17T10:20:54;0.10;;;0.10;;
5521;SDS011;2783;48.730;8.006;2023-08-17T10:23:32;0.10;;;0.10;;
5521;SDS011;2783;48.730;8.006;2023-08-17T10:25:59;0.10;;;0.10;;
5521;SDS011;2783;48.730;8.006;2023-08-17T10:28:27;0.10;;;0.10;;
5521;SDS011;2783;48.730;8.006;2023-08-17T10:30:55;0.10;;;0.10;;
5521;SDS011;2783;48.730;8.006;2023-08-17T10:33:21;0.10;;;0.10;;
5521;SDS011;2783;48.730;8.006;2023-08-17T10:35:47;0.08;;;0.08;;
5521;SDS011;2783;48.730;8.006;2023-08-17T10:38:14;0.10;;;0.10;;
5521;SDS011;2783;48.730;8.006;2023-08-17T10:40:41;0.10;;;0.10;;
5521;SDS011;2783;48.730;8.006;2023-08-17T10:43:07;0.10;;;0.10;;
5521;SDS011;2783;48.730;8.006;2023-08-17T10:45:33;0.08;;;0.08;;
5521;SDS011;2783;48.730;8.006;2023-08-17T10:50:32;0.00;;;0.00;;
5521;SDS011;2783;48.730;8.006;2023-08-17T10:53:03;0.00;;;0.00;;
5521;SDS011;2783;48.730;8.006;2023-08-17T10:55:37;0.10;;;0.10;;
5521;SDS011;2783;48.730;8.006;2023-08-17T10:58:06;0.10;;;0.10;;
5521;SDS011;2783;48.730;8.006;2023-08-17T11:00:39;0.10;;;0.10;;
5521;SDS011;2783;48.730;8.006;2023-08-17T11:03:06;0.00;;;0.00;;
5521;SDS011;2783;48.730;8.006;2023-08-17T11:11:03;0.10;;;0.10;;
5521;SDS011;2783;48.730;8.006;2023-08-17T11:13:33;0.00;;;0.00;;
5521;SDS011;2783;48.730;8.006;2023-08-17T11:16:00;0.10;;;0.10;;
5521;SDS011;2783;48.730;8.006;2023-08-17T11:18:27;0.00;;;0.00;;
5521;SDS011;2783;48.730;8.006;2023-08-17T11:20:53;0.03;;;0.03;;
5521;SDS011;2783;48.730;8.006;2023-08-17T11:23:19;0.00;;;0.00;;
5521;SDS011;2783;48.730;8.006;2023-08-17T11:25:45;0.00;;;0.00;;
5521;SDS011;2783;48.730;8.006;2023-08-17T11:28:11;0.00;;;0.00;;
5521;SDS011;2783;48.730;8.006;2023-08-17T11:30:39;0.00;;;0.00;;
5521;SDS011;2783;48.730;8.006;2023-08-17T11:33:05;0.10;;;0.10;;
5521;SDS011;2783;48.730;8.006;2023-08-17T11:35:31;0.05;;;0.05;;
5521;SDS011;2783;48.730;8.006;2023-08-17T11:37:57;0.00;;;0.00;;
5521;SDS011;2783;48.730;8.006;2023-08-17T11:40:22;0.10;;;0.10;;
5521;SDS011;2783;48.730;8.006;2023-08-17T11:42:49;0.00;;;0.00;;
5521;SDS011;2783;48.730;8.006;2023-08-17T11:45:15;0.00;;;0.00;;
5521;SDS011;2783;48.730;8.006;2023-08-17T11:47:41;0.03;;;0.03;;
5521;SDS011;2783;48.730;8.006;2023-08-17T11:50:08;0.10;;;0.10;;
5521;SDS011;2783;48.730;8.006;2023-08-17T11:52:35;0.00;;;0.00;;
5521;SDS011;2783;48.730;8.006;2023-08-17T11:55:02;0.00;;;0.00;;
5521;SDS011;2783;48.730;8.006;2023-08-17T11:57:30;0.00;;;0.00;;
5521;SDS011;2783;48.730;8.006;2023-08-17T11:59:59;0.03;;;0.03;;
5521;SDS011;2783;48.730;8.006;2023-08-17T12:02:26;0.00;;;0.00;;
5521;SDS011;2783;48.730;8.006;2023-08-17T12:04:52;0.00;;;0.00;;
5521;SDS011;2783;48.730;8.006;2023-08-17T12:07:20;0.00;;;0.00;;
5521;SDS011;2783;48.730;8.006;2023-08-17T12:09:47;0.00;;;0.00;;
5521;SDS011;2783;48.730;8.006;2023-08-17T12:12:16;0.00;;;0.00;;
5521;SDS011;2783;48.730;8.006;2023-08-17T12:14:43;0.00;;;0.00;;
5521;SDS011;2783;48.730;8.006;2023-08-17T12:17:13;0.00;;;0.00;;
5521;SDS011;2783;48.730;8.006;2023-08-17T12:19:40;0.00;;;0.00;;
5521;SDS011;2783;48.730;8.006;2023-08-17T12:22:06;0.00;;;0.00;;
5521;SDS011;2783;48.730;8.006;2023-08-17T12:24:31;0.10;;;0.10;;
5521;SDS011;2783;48.730;8.006;2023-08-17T12:26:57;0.00;;;0.00;;
5521;SDS011;2783;48.730;8.006;2023-08-17T12:29:23;0.00;;;0.00;;
5521;SDS011;2783;48.730;8.006;2023-08-17T12:31:51;0.00;;;0.00;;
5521;SDS011;2783;48.730;8.006;2023-08-17T12:34:17;0.00;;;0.00;;
5521;SDS011;2783;48.730;8.006;2023-08-17T12:36:43;0.00;;;0.00;;
5521;SDS011;2783;48.730;8.006;2023-08-17T12:39:09;0.00;;;0.00;;
5521;SDS011;2783;48.730;8.006;2023-08-17T12:41:34;0.00;;;0.00;;
5521;SDS011;2783;48.730;8.006;2023-08-17T12:44:00;0.00;;;0.00;;
5521;SDS011;2783;48.730;8.006;2023-08-17T12:46:26;0.00;;;0.00;;
5521;SDS011;2783;48.730;8.006;2023-08-17T12:48:51;0.00;;;0.00;;
5521;SDS011;2783;48.730;8.006;2023-08-17T12:51:17;0.00;;;0.00;;
5521;SDS011;2783;48.730;8.006;2023-08-17T12:53:42;0.00;;;0.00;;
5521;SDS011;2783;48.730;8.006;2023-08-17T12:56:08;0.00;;;0.00;;
5521;SDS011;2783;48.730;8.006;2023-08-17T12:58:33;0.00;;;0.00;;
5521;SDS011;2783;48.730;8.006;2023-08-17T13:00:59;0.00;;;0.00;;
5521;SDS011;2783;48.730;8.006;2023-08-17T13:03:24;0.00;;;0.00;;
5521;SDS011;2783;48.730;8.006;2023-08-17T13:05:50;0.00;;;0.00;;
5521;SDS011;2783;48.730;8.006;2023-08-17T13:08:15;0.00;;;0.00;;
5521;SDS011;2783;48.730;8.006;2023-08-17T13:10:41;0.00;;;0.00;;
5521;SDS011;2783;48.730;8.006;2023-08-17T13:13:07;0.00;;;0.00;;
5521;SDS011;2783;48.730;8.006;2023-08-17T13:15:32;0.00;;;0.00;;
5521;SDS011;2783;48.730;8.006;2023-08-17T13:17:58;0.00;;;0.00;;
5521;SDS011;2783;48.730;8.006;2023-08-17T13:20:24;0.00;;;0.00;;
5521;SDS011;2783;48.730;8.006;2023-08-17T13:22:49;0.00;;;0.00;;
5521;SDS011;2783;48.730;8.006;2023-08-17T13:25:15;0.00;;;0.00;;
5521;SDS011;2783;48.730;8.006;2023-08-17T13:27:41;0.00;;;0.00;;
5521;SDS011;2783;48.730;8.006;2023-08-17T13:30:06;0.00;;;0.00;;
5521;SDS011;2783;48.730;8.006;2023-08-17T13:32:32;0.00;;;0.00;;
5521;SDS011;2783;48.730;8.006;2023-08-17T13:34:57;0.00;;;0.00;;
5521;SDS011;2783;48.730;8.006;2023-08-17T13:37:23;0.00;;;0.00;;
5521;SDS011;2783;48.730;8.006;2023-08-17T13:39:49;0.00;;;0.00;;
5521;SDS011;2783;48.730;8.006;2023-08-17T13:42:14;0.00;;;0.00;;
5521;SDS011;2783;48.730;8.006;2023-08-17T13:44:40;0.00;;;0.00;;
5521;SDS011;2783;48.730;8.006;2023-08-17T13:47:05;0.00;;;0.00;;
5521;SDS011;2783;48.730;8.006;2023-08-17T13:49:31;0.00;;;0.00;;
5521;SDS011;2783;48.730;8.006;2023-08-17T13:51:56;0.00;;;0.00;;
5521;SDS011;2783;48.730;8.006;2023-08-17T13:54:22;0.00;;;0.00;;
5521;SDS011;2783;48.730;8.006;2023-08-17T13:56:48;0.00;;;0.00;;
5521;SDS011;2783;48.730;8.006;2023-08-17T13:59:13;0.00;;;0.00;;
5521;SDS011;2783;48.730;8.006;2023-08-17T14:01:39;0.00;;;0.00;;
5521;SDS011;2783;48.730;8.006;2023-08-17T14:04:05;0.00;;;0.00;;
5521;SDS011;2783;48.730;8.006;2023-08-17T14:06:36;0.00;;;0.00;;
5521;SDS011;2783;48.730;8.006;2023-08-17T14:09:02;0.00;;;0.00;;
5521;SDS011;2783;48.730;8.006;2023-08-17T14:11:28;0.00;;;0.00;;
5521;SDS011;2783;48.730;8.006;2023-08-17T14:13:53;0.00;;;0.00;;
5521;SDS011;2783;48.730;8.006;2023-08-17T14:16:19;0.00;;;0.00;;
5521;SDS011;2783;48.730;8.006;2023-08-17T14:18:44;0.00;;;0.00;;
5521;SDS011;2783;48.730;8.006;2023-08-17T14:21:09;0.00;;;0.00;;
5521;SDS011;2783;48.730;8.006;2023-08-17T14:23:35;0.00;;;0.00;;
5521;SDS011;2783;48.730;8.006;2023-08-17T14:26:01;0.00;;;0.00;;
5521;SDS011;2783;48.730;8.006;2023-08-17T14:28:26;0.00;;;0.00;;
5521;SDS011;2783;48.730;8.006;2023-08-17T14:30:51;0.00;;;0.00;;
5521;SDS011;2783;48.730;8.006;2023-08-17T14:33:17;0.00;;;0.00;;
5521;SDS011;2783;48.730;8.006;2023-08-17T14:35:42;0.00;;;0.00;;
5521;SDS011;2783;48.730;8.006;2023-08-17T14:38:07;0.00;;;0.00;;
5521;SDS011;2783;48.730;8.006;2023-08-17T14:40:34;0.00;;;0.00;;
5521;SDS011;2783;48.730;8.006;2023-08-17T14:43:00;0.00;;;0.00;;
5521;SDS011;2783;48.730;8.006;2023-08-17T14:45:26;0.00;;;0.00;;
5521;SDS011;2783;48.730;8.006;2023-08-17T14:47:51;0.00;;;0.00;;
5521;SDS011;2783;48.730;8.006;2023-08-17T14:50:17;0.00;;;0.00;;
5521;SDS011;2783;48.730;8.006;2023-08-17T14:52:42;0.00;;;0.00;;
5521;SDS011;2783;48.730;8.006;2023-08-17T14:55:08;0.00;;;0.00;;
5521;SDS011;2783;48.730;8.006;2023-08-17T14:57:34;0.00;;;0.00;;
5521;SDS011;2783;48.730;8.006;2023-08-17T14:59:59;0.00;;;0.00;;
5521;SDS011;2783;48.730;8.006;2023-08-17T15:02:24;0.00;;;0.00;;
5521;SDS011;2783;48.730;8.006;2023-08-17T15:04:50;0.00;;;0.00;;
5521;SDS011;2783;48.730;8.006;2023-08-17T15:07:15;0.00;;;0.00;;
5521;SDS011;2783;48.730;8.006;2023-08-17T15:09:41;0.00;;;0.00;;
5521;SDS011;2783;48.730;8.006;2023-08-17T15:12:06;0.00;;;0.00;;
5521;SDS011;2783;48.730;8.006;2023-08-17T15:14:32;0.00;;;0.00;;
5521;SDS011;2783;48.730;8.006;2023-08-17T15:16:57;0.00;;;0.00;;
5521;SDS011;2783;48.730;8.006;2023-08-17T15:19:23;0.00;;;0.00;;
5521;SDS011;2783;48.730;8.006;2023-08-17T15:21:48;0.00;;;0.00;;
5521;SDS011;2783;48.730;8.006;2023-08-17T15:24:14;0.00;;;0.00;;
5521;SDS011;2783;48.730;8.006;2023-08-17T15:26:39;0.00;;;0.00;;
5521;SDS011;2783;48.730;8.006;2023-08-17T15:29:05;0.00;;;0.00;;
5521;SDS011;2783;48.730;8.006;2023-08-17T15:31:31;0.00;;;0.00;;
5521;SDS011;2783;48.730;8.006;2023-08-17T15:33:56;0.00;;;0.00;;